createdAt,value
2022-09-01T00:02:01.506Z,8.4
2022-09-01T00:07:01.522Z,9.3
2022-09-01T00:12:01.548Z,8.7
2022-09-01T00:17:01.516Z,8.9
2022-09-01T00:22:01.529Z,9.2
2022-09-01T00:32:01.509Z,8.6
2022-09-01T00:37:01.526Z,9.6
2022-09-01T00:42:01.508Z,9.7
2022-09-01T00:47:01.510Z,8.8
2022-09-01T00:52:01.527Z,9.1
2022-09-01T00:57:01.515Z,9.4
2022-09-01T01:02:01.511Z,8.9
2022-09-01T01:07:01.595Z,9.0
2022-09-01T01:12:01.514Z,9.6
2022-09-01T01:17:01.569Z,9.5
2022-09-01T01:22:01.615Z,9.8
2022-09-01T01:27:02.370Z,10.0
2022-09-01T01:32:01.519Z,10.2
2022-09-01T01:37:01.535Z,11.0
2022-09-01T01:42:02.007Z,10.9
2022-09-01T01:58:01.501Z,11.0
2022-09-01T02:03:01.551Z,10.6
2022-09-01T02:08:01.539Z,11.2
2022-09-01T02:13:01.506Z,10.6
2022-09-01T02:18:03.293Z,10.7
2022-09-01T02:23:01.565Z,10.6
2022-09-01T02:28:01.608Z,10.4
2022-09-01T02:33:01.500Z,10.8
2022-09-01T02:38:01.519Z,11.8
2022-09-01T02:43:01.501Z,11.6
2022-09-01T02:48:01.499Z,11.8
2022-09-01T02:53:03.888Z,12.7
2022-09-01T02:58:01.503Z,12.5
2022-09-01T03:03:01.589Z,12.9
2022-09-01T03:08:01.519Z,14.2
2022-09-01T03:13:01.499Z,14.5
2022-09-01T03:18:01.500Z,14.0
2022-09-01T03:23:01.654Z,14.7
2022-09-01T03:28:03.011Z,14.2
2022-09-01T03:33:01.514Z,13.8
2022-09-01T03:38:01.571Z,12.9
2022-09-01T03:43:01.615Z,13.8
2022-09-01T03:48:01.512Z,13.3
2022-09-01T03:53:01.527Z,12.8
2022-09-01T03:58:01.506Z,12.6
2022-09-01T04:03:01.505Z,14.8
2022-09-01T04:08:01.614Z,14.9
2022-09-01T04:13:01.505Z,14.2
2022-09-01T04:18:01.506Z,15.1
2022-09-01T04:23:02.186Z,16.1
2022-09-01T04:28:01.507Z,14.8
2022-09-01T04:33:01.515Z,14.5
2022-09-01T04:38:01.513Z,16.1
2022-09-01T04:43:01.534Z,16.2
2022-09-01T04:48:01.515Z,14.7
2022-09-01T04:53:01.514Z,13.8
2022-09-01T04:58:01.519Z,14.2
2022-09-01T05:03:01.660Z,13.4
2022-09-01T05:08:01.520Z,13.3
2022-09-01T05:13:01.518Z,13.5
2022-09-01T05:18:01.577Z,13.8
2022-09-01T05:23:01.537Z,13.2
2022-09-01T05:28:02.149Z,13.1
2022-09-01T05:33:01.743Z,12.8
2022-09-01T05:43:01.579Z,13.8
2022-09-01T05:48:01.510Z,13.9
2022-09-01T05:53:03.610Z,13.7
2022-09-01T05:58:01.503Z,14.3
2022-09-01T06:03:01.654Z,15.2
2022-09-01T06:08:01.422Z,15.8
2022-09-01T06:13:01.510Z,16.5
2022-09-01T06:18:01.893Z,16.7
2022-09-01T06:23:02.404Z,16.5
2022-09-01T06:28:01.511Z,16.0
2022-09-01T06:33:02.496Z,15.6
2022-09-01T06:43:01.874Z,16.2
2022-09-01T06:48:01.502Z,16.5
2022-09-01T06:53:32.787Z,16.8
2022-09-01T06:58:09.643Z,17.1
2022-09-01T07:03:01.340Z,17.8
2022-09-01T07:08:08.525Z,18.0
2022-09-01T07:35:05.149Z,14.8
2022-09-01T08:05:02.438Z,9.4
2022-09-01T08:10:04.547Z,11.1
2022-09-01T08:45:08.218Z,8.6
2022-09-01T09:15:13.689Z,8.0
2022-09-01T09:20:01.963Z,8.3
2022-09-01T09:25:08.287Z,8.7
2022-09-01T09:30:18.178Z,8.9
2022-09-01T09:55:05.148Z,8.0
2022-09-01T10:00:07.137Z,8.0
2022-09-01T10:05:01.475Z,7.9
2022-09-01T10:10:05.111Z,8.1
2022-09-01T10:15:16.256Z,8.1
2022-09-01T10:45:02.957Z,5.0
2022-09-01T10:50:07.398Z,5.5
2022-09-01T10:55:03.377Z,6.3
2022-09-01T11:25:38.571Z,6.0
2022-09-01T11:30:07.912Z,6.5
2022-09-01T11:40:01.480Z,7.2
2022-09-01T11:45:04.436Z,7.5
2022-09-01T11:50:01.467Z,7.9
2022-09-01T11:55:01.472Z,8.1
2022-09-01T12:00:05.249Z,8.2
2022-09-01T12:05:01.464Z,7.8
2022-09-01T12:10:02.568Z,7.6
2022-09-01T12:15:16.246Z,7.4
2022-09-01T12:20:01.411Z,7.1
2022-09-01T12:25:01.329Z,6.9
2022-09-01T12:30:01.817Z,6.6
2022-09-01T12:35:16.276Z,6.1
2022-09-01T12:40:01.254Z,6.6
2022-09-01T12:45:05.021Z,6.3
2022-09-01T12:50:03.354Z,6.6
2022-09-01T12:55:01.183Z,6.4
2022-09-01T13:00:06.984Z,6.4
2022-09-01T13:05:01.195Z,5.9
2022-09-01T13:10:01.269Z,5.8
2022-09-01T13:15:02.165Z,5.0
2022-09-01T13:20:01.470Z,4.6
2022-09-01T13:25:01.455Z,4.1
2022-09-01T13:55:03.187Z,3.0
2022-09-01T14:00:03.768Z,2.5
2022-09-01T14:06:01.898Z,2.7
2022-09-01T14:11:02.044Z,3.2
2022-09-01T14:16:01.610Z,3.4
2022-09-01T14:21:01.543Z,4.2
2022-09-01T14:26:01.591Z,4.5
2022-09-01T14:31:01.503Z,4.7
2022-09-01T14:36:01.521Z,4.4
2022-09-01T14:41:01.404Z,4.0
2022-09-01T14:46:01.504Z,3.1
2022-09-01T14:56:01.507Z,2.5
2022-09-01T15:01:12.182Z,2.6
2022-09-01T15:06:01.508Z,2.7
2022-09-01T15:11:01.550Z,2.9
2022-09-01T15:16:01.644Z,2.5
2022-09-01T15:21:01.515Z,3.0
2022-09-01T15:26:01.521Z,2.6
2022-09-01T15:31:01.586Z,2.5
2022-09-01T15:41:01.630Z,2.6
2022-09-01T15:46:01.531Z,2.5
2022-09-01T15:51:01.523Z,3.2
2022-09-01T16:01:01.548Z,3.0
2022-09-01T16:06:01.705Z,3.2
2022-09-01T16:11:01.510Z,2.8
2022-09-01T16:16:08.686Z,2.5
2022-09-01T16:26:01.533Z,2.6
2022-09-01T16:36:08.224Z,2.7
2022-09-01T16:41:01.518Z,2.3
2022-09-01T16:46:01.222Z,2.6
2022-09-01T16:51:01.520Z,3.0
2022-09-01T16:57:09.190Z,3.2
2022-09-01T17:02:01.601Z,3.4
2022-09-01T17:12:01.454Z,3.2
2022-09-01T17:17:01.521Z,2.8
2022-09-01T17:22:01.443Z,2.6
2022-09-01T17:27:01.448Z,2.4
2022-09-01T17:32:01.449Z,2.8
2022-09-01T17:37:01.482Z,3.1
2022-09-01T17:42:01.389Z,3.4
2022-09-01T18:05:17.272Z,7.0
2022-09-01T18:11:01.297Z,7.5
2022-09-01T18:16:01.305Z,12.6
2022-09-01T18:21:01.282Z,15.0
2022-09-01T18:26:01.310Z,14.9
2022-09-01T18:31:01.327Z,16.5
2022-09-01T18:36:01.366Z,17.1
2022-09-01T18:41:01.344Z,15.8
2022-09-01T18:46:01.586Z,16.7
2022-09-01T18:51:16.693Z,17.3
2022-09-01T18:56:01.328Z,19.0
2022-09-01T19:01:01.312Z,20.4
2022-09-01T19:06:01.306Z,19.5
2022-09-01T19:11:01.383Z,17.4
2022-09-01T19:16:11.304Z,18.1
2022-09-01T19:21:01.029Z,16.3
2022-09-01T19:26:01.471Z,14.6
2022-09-01T19:31:01.183Z,14.2
2022-09-01T19:36:01.201Z,12.4
2022-09-01T19:41:01.540Z,11.7
2022-09-01T19:46:01.607Z,10.9
2022-09-01T19:51:01.556Z,12.6
2022-09-01T19:56:08.270Z,14.0
2022-09-01T20:01:03.030Z,17.1
2022-09-01T20:06:01.442Z,17.9
2022-09-01T20:11:09.610Z,19.2
2022-09-01T20:21:01.724Z,19.3
2022-09-01T20:26:01.535Z,17.6
2022-09-01T20:31:04.088Z,15.3
2022-09-01T20:36:01.387Z,13.3
2022-09-01T20:41:01.505Z,11.6
2022-09-01T20:46:01.505Z,9.8
2022-09-01T20:51:01.354Z,8.2
2022-09-01T20:56:01.526Z,8.0
2022-09-01T21:01:01.288Z,8.6
2022-09-01T21:06:01.212Z,8.5
2022-09-01T21:11:16.907Z,7.8
2022-09-01T21:16:01.377Z,7.7
2022-09-01T21:26:01.461Z,6.8
2022-09-01T21:31:01.484Z,6.9
2022-09-01T21:36:01.575Z,7.0
2022-09-01T21:41:01.582Z,6.9
2022-09-01T21:46:04.815Z,6.4
2022-09-01T21:51:01.574Z,6.7
2022-09-01T21:56:01.559Z,5.9
2022-09-01T22:01:04.379Z,6.2
2022-09-01T22:06:01.172Z,7.1
2022-09-01T22:11:01.520Z,7.4
2022-09-01T22:16:01.538Z,8.1
2022-09-01T22:21:01.493Z,8.3
2022-09-01T22:31:01.072Z,7.8
2022-09-01T22:36:02.191Z,7.6
2022-09-01T22:41:01.236Z,6.8
2022-09-01T22:46:01.476Z,7.1
2022-09-01T22:51:05.135Z,7.2
2022-09-01T22:56:01.564Z,6.8
2022-09-01T23:06:03.870Z,7.1
2022-09-01T23:11:02.453Z,7.0
2022-09-01T23:16:01.646Z,6.6
2022-09-01T23:21:01.566Z,6.9
2022-09-01T23:26:03.694Z,7.2
2022-09-01T23:36:01.555Z,7.4
2022-09-01T23:41:01.559Z,7.6
2022-09-01T23:46:01.613Z,7.5
2022-09-01T23:51:01.621Z,7.0
2022-09-01T23:56:01.471Z,6.6
